sensor_id;sensor_type;location;lat;lon;timestamp;pressure;altitude;pressure_sealevel;temperature;humidity
13934;BME280;7039;52.168;9.866;2023-02-11T09:45:27;102115.94;;;7.22;91.98
13934;BME280;7039;52.168;9.866;2023-02-11T09:47:56;102120.19;;;7.29;92.25
13934;BME280;7039;52.168;9.866;2023-02-11T09:50:28;102132.22;;;7.38;92.04
13934;BME280;7039;52.168;9.866;2023-02-11T09:52:57;102136.44;;;7.47;91.25
13934;BME280;7039;52.168;9.866;2023-02-11T09:55:27;102146.66;;;7.62;91.23
13934;BME280;7039;52.168;9.866;2023-02-11T09:57:55;102155.44;;;7.52;90.85
13934;BME280;7039;52.168;9.866;2023-02-11T10:00:25;102155.34;;;7.61;90.93
13934;BME280;7039;52.168;9.866;2023-02-11T10:03:13;102156.13;;;7.68;90.38
13934;BME280;7039;52.168;9.866;2023-02-11T10:05:58;102161.47;;;7.54;90.82
13934;BME280;7039;52.168;9.866;2023-02-11T10:08:37;102163.03;;;7.70;90.57
13934;BME280;7039;52.168;9.866;2023-02-11T10:11:11;102168.28;;;7.66;91.14
13934;BME280;7039;52.168;9.866;2023-02-11T10:13:54;102158.13;;;7.43;91.39
13934;BME280;7039;52.168;9.866;2023-02-11T10:16:37;102165.69;;;7.63;91.33
13934;BME280;7039;52.168;9.866;2023-02-11T10:19:16;102183.81;;;7.70;91.12
13934;BME280;7039;52.168;9.866;2023-02-11T10:21:52;102173.53;;;7.61;91.30
13934;BME280;7039;52.168;9.866;2023-02-11T10:24:24;102181.22;;;7.70;90.94
13934;BME280;7039;52.168;9.866;2023-02-11T10:26:52;102175.25;;;7.59;91.41
13934;BME280;7039;52.168;9.866;2023-02-11T10:29:32;102179.38;;;7.80;90.67
13934;BME280;7039;52.168;9.866;2023-02-11T10:32:04;102167.34;;;7.71;91.24
13934;BME280;7039;52.168;9.866;2023-02-11T10:34:42;102161.38;;;7.62;92.30
13934;BME280;7039;52.168;9.866;2023-02-11T10:37:11;102164.09;;;7.52;92.54
13934;BME280;7039;52.168;9.866;2023-02-11T10:39:40;102154.44;;;7.62;91.85
13934;BME280;7039;52.168;9.866;2023-02-11T10:42:09;102166.69;;;7.52;92.85
13934;BME280;7039;52.168;9.866;2023-02-11T10:44:38;102161.34;;;7.66;92.65
13934;BME280;7039;52.168;9.866;2023-02-11T10:47:10;102152.88;;;7.47;93.54
13934;BME280;7039;52.168;9.866;2023-02-11T10:49:41;102158.03;;;7.52;93.61
13934;BME280;7039;52.168;9.866;2023-02-11T10:52:20;102162.09;;;7.76;93.01
13934;BME280;7039;52.168;9.866;2023-02-11T10:55:03;102151.78;;;7.70;92.83
13934;BME280;7039;52.168;9.866;2023-02-11T10:57:33;102166.31;;;7.86;92.69
13934;BME280;7039;52.168;9.866;2023-02-11T11:00:05;102164.41;;;8.01;91.85
13934;BME280;7039;52.168;9.866;2023-02-11T11:02:34;102157.63;;;7.89;92.43
13934;BME280;7039;52.168;9.866;2023-02-11T11:05:06;102155.03;;;7.87;92.54
13934;BME280;7039;52.168;9.866;2023-02-11T11:07:50;102144.56;;;7.93;92.67
13934;BME280;7039;52.168;9.866;2023-02-11T11:10:34;102142.88;;;7.91;93.18
13934;BME280;7039;52.168;9.866;2023-02-11T11:13:01;102143.50;;;8.08;92.16
13934;BME280;7039;52.168;9.866;2023-02-11T11:15:29;102157.75;;;7.78;92.93
13934;BME280;7039;52.168;9.866;2023-02-11T11:18:11;102140.19;;;7.99;92.93
13934;BME280;7039;52.168;9.866;2023-02-11T11:20:43;102151.53;;;7.90;93.18
13934;BME280;7039;52.168;9.866;2023-02-11T11:23:21;102153.38;;;7.82;93.08
13934;BME280;7039;52.168;9.866;2023-02-11T11:26:00;102146.94;;;8.12;92.03
13934;BME280;7039;52.168;9.866;2023-02-11T11:28:28;102152.09;;;8.16;92.43
13934;BME280;7039;52.168;9.866;2023-02-11T11:30:55;102143.59;;;8.02;92.75
13934;BME280;7039;52.168;9.866;2023-02-11T11:33:25;102137.69;;;7.89;93.05
13934;BME280;7039;52.168;9.866;2023-02-11T11:36:00;102153.28;;;7.89;93.36
13934;BME280;7039;52.168;9.866;2023-02-11T11:38:27;102144.53;;;7.97;93.34
13934;BME280;7039;52.168;9.866;2023-02-11T11:41:15;102155.59;;;8.12;93.20
13934;BME280;7039;52.168;9.866;2023-02-11T11:43:53;102156.66;;;7.98;93.43
13934;BME280;7039;52.168;9.866;2023-02-11T11:46:22;102168.75;;;8.02;93.25
13934;BME280;7039;52.168;9.866;2023-02-11T11:48:50;102165.41;;;7.89;94.29
13934;BME280;7039;52.168;9.866;2023-02-11T11:51:19;102163.72;;;7.83;94.60
13934;BME280;7039;52.168;9.866;2023-02-11T11:53:52;102157.56;;;7.95;94.46
13934;BME280;7039;52.168;9.866;2023-02-11T11:56:24;102157.56;;;7.95;94.62
13934;BME280;7039;52.168;9.866;2023-02-11T11:58:52;102165.38;;;7.93;94.41
13934;BME280;7039;52.168;9.866;2023-02-11T12:01:31;102161.03;;;7.92;94.47
13934;BME280;7039;52.168;9.866;2023-02-11T12:07:09;102173.09;;;7.97;94.36
13934;BME280;7039;52.168;9.866;2023-02-11T12:09:47;102164.16;;;8.19;93.96
13934;BME280;7039;52.168;9.866;2023-02-11T12:12:25;102173.72;;;8.19;92.97
13934;BME280;7039;52.168;9.866;2023-02-11T12:15:06;102159.56;;;8.40;92.41
13934;BME280;7039;52.168;9.866;2023-02-11T12:17:50;102158.72;;;8.39;92.10
13934;BME280;7039;52.168;9.866;2023-02-11T12:20:28;102164.78;;;8.43;91.74
13934;BME280;7039;52.168;9.866;2023-02-11T12:23:16;102162.44;;;8.20;92.72
13934;BME280;7039;52.168;9.866;2023-02-11T12:25:55;102162.34;;;8.26;92.19
13934;BME280;7039;52.168;9.866;2023-02-11T12:28:32;102168.25;;;8.39;92.00
13934;BME280;7039;52.168;9.866;2023-02-11T12:31:15;102163.13;;;8.34;91.90
13934;BME280;7039;52.168;9.866;2023-02-11T12:34:02;102171.84;;;8.30;91.82
13934;BME280;7039;52.168;9.866;2023-02-11T12:36:54;102169.31;;;8.25;92.08
13934;BME280;7039;52.168;9.866;2023-02-11T12:39:32;102165.66;;;8.37;91.66
13934;BME280;7039;52.168;9.866;2023-02-11T12:42:16;102150.19;;;8.28;92.02
13934;BME280;7039;52.168;9.866;2023-02-11T12:45:15;102168.25;;;8.42;91.72
13934;BME280;7039;52.168;9.866;2023-02-11T12:47:54;102182.22;;;8.31;91.71
13934;BME280;7039;52.168;9.866;2023-02-11T12:50:28;102151.13;;;8.24;92.03
13934;BME280;7039;52.168;9.866;2023-02-11T12:53:06;102163.97;;;8.34;92.01
13934;BME280;7039;52.168;9.866;2023-02-11T12:55:41;102158.69;;;8.44;91.58
13934;BME280;7039;52.168;9.866;2023-02-11T12:58:13;102160.47;;;8.37;91.94
13934;BME280;7039;52.168;9.866;2023-02-11T13:00:44;102167.34;;;8.44;91.78
13934;BME280;7039;52.168;9.866;2023-02-11T13:03:17;102172.56;;;8.43;91.70
13934;BME280;7039;52.168;9.866;2023-02-11T13:05:48;102169.34;;;8.22;92.39
13934;BME280;7039;52.168;9.866;2023-02-11T13:08:21;102168.34;;;8.32;92.57
13934;BME280;7039;52.168;9.866;2023-02-11T13:10:53;102151.16;;;8.21;92.93
13934;BME280;7039;52.168;9.866;2023-02-11T13:13:22;102165.00;;;8.23;92.44
13934;BME280;7039;52.168;9.866;2023-02-11T13:15:53;102169.31;;;8.25;92.82
13934;BME280;7039;52.168;9.866;2023-02-11T13:18:40;102168.47;;;8.23;93.14
13934;BME280;7039;52.168;9.866;2023-02-11T13:21:30;102172.59;;;8.38;92.98
13934;BME280;7039;52.168;9.866;2023-02-11T13:24:05;102176.97;;;8.34;92.63
13934;BME280;7039;52.168;9.866;2023-02-11T13:26:39;102175.38;;;8.24;93.21
13934;BME280;7039;52.168;9.866;2023-02-11T13:29:17;102175.22;;;8.35;92.76
13934;BME280;7039;52.168;9.866;2023-02-11T13:31:52;102176.81;;;8.50;92.29
13934;BME280;7039;52.168;9.866;2023-02-11T13:34:23;102184.53;;;8.54;91.82
13934;BME280;7039;52.168;9.866;2023-02-11T13:36:53;102189.03;;;8.42;92.72
13934;BME280;7039;52.168;9.866;2023-02-11T13:39:21;102196.78;;;8.48;92.37
13934;BME280;7039;52.168;9.866;2023-02-11T13:41:49;102192.47;;;8.44;92.77
13934;BME280;7039;52.168;9.866;2023-02-11T13:44:26;102196.63;;;8.59;92.06
13934;BME280;7039;52.168;9.866;2023-02-11T13:46:56;102188.06;;;8.50;92.45
13934;BME280;7039;52.168;9.866;2023-02-11T13:49:28;102199.34;;;8.49;92.51
13934;BME280;7039;52.168;9.866;2023-02-11T13:51:55;102189.91;;;8.39;92.95
13934;BME280;7039;52.168;9.866;2023-02-11T13:54:29;102182.28;;;8.27;93.53
13934;BME280;7039;52.168;9.866;2023-02-11T13:57:25;102189.94;;;8.41;93.64
13934;BME280;7039;52.168;9.866;2023-02-11T13:59:54;102176.19;;;8.26;93.57
13934;BME280;7039;52.168;9.866;2023-02-11T14:02:23;102183.75;;;8.49;93.59
13934;BME280;7039;52.168;9.866;2023-02-11T14:05:30;102178.56;;;8.48;93.49
13934;BME280;7039;52.168;9.866;2023-02-11T14:08:24;102178.63;;;8.43;93.39
13934;BME280;7039;52.168;9.866;2023-02-11T14:14:16;102186.47;;;8.39;93.44
13934;BME280;7039;52.168;9.866;2023-02-11T14:19:46;102188.47;;;8.16;94.02
13934;BME280;7039;52.168;9.866;2023-02-11T14:22:16;102190.03;;;8.31;94.32
13934;BME280;7039;52.168;9.866;2023-02-11T14:24:48;102184.69;;;8.42;94.00
13934;BME280;7039;52.168;9.866;2023-02-11T14:27:21;102192.47;;;8.45;93.53
13934;BME280;7039;52.168;9.866;2023-02-11T14:30:01;102194.34;;;8.31;94.77
13934;BME280;7039;52.168;9.866;2023-02-11T14:32:40;102208.09;;;8.42;94.02
13934;BME280;7039;52.168;9.866;2023-02-11T14:35:15;102211.34;;;8.58;93.33
13934;BME280;7039;52.168;9.866;2023-02-11T14:37:53;102207.09;;;8.52;93.36
13934;BME280;7039;52.168;9.866;2023-02-11T14:40:28;102209.84;;;8.43;93.71
13934;BME280;7039;52.168;9.866;2023-02-11T14:43:00;102202.97;;;8.36;93.60
13934;BME280;7039;52.168;9.866;2023-02-11T14:45:30;102219.31;;;8.46;93.67
13934;BME280;7039;52.168;9.866;2023-02-11T14:48:02;102209.53;;;8.65;92.80
13934;BME280;7039;52.168;9.866;2023-02-11T14:50:34;102206.06;;;8.64;93.15
13934;BME280;7039;52.168;9.866;2023-02-11T14:53:04;102207.19;;;8.45;92.98
13934;BME280;7039;52.168;9.866;2023-02-11T14:55:33;102210.69;;;8.42;93.10
13934;BME280;7039;52.168;9.866;2023-02-11T14:58:12;102202.91;;;8.39;93.49
13934;BME280;7039;52.168;9.866;2023-02-11T15:00:49;102202.91;;;8.42;93.44
13934;BME280;7039;52.168;9.866;2023-02-11T15:03:40;102223.22;;;8.77;92.40
13934;BME280;7039;52.168;9.866;2023-02-11T15:06:15;102226.09;;;8.57;92.28
13934;BME280;7039;52.168;9.866;2023-02-11T15:08:47;102230.53;;;8.51;92.74
13934;BME280;7039;52.168;9.866;2023-02-11T15:11:17;102235.72;;;8.52;93.31
13934;BME280;7039;52.168;9.866;2023-02-11T15:13:45;102236.50;;;8.59;92.71
13934;BME280;7039;52.168;9.866;2023-02-11T15:16:17;102236.44;;;8.62;92.55
13934;BME280;7039;52.168;9.866;2023-02-11T15:18:47;102234.75;;;8.58;92.42
13934;BME280;7039;52.168;9.866;2023-02-11T15:21:19;102233.84;;;8.62;93.00
13934;BME280;7039;52.168;9.866;2023-02-11T15:23:54;102246.78;;;8.68;92.27
13934;BME280;7039;52.168;9.866;2023-02-11T15:26:21;102250.19;;;8.72;92.31
13934;BME280;7039;52.168;9.866;2023-02-11T15:28:48;102247.69;;;8.64;91.98
13934;BME280;7039;52.168;9.866;2023-02-11T15:31:18;102248.41;;;8.74;91.91
13934;BME280;7039;52.168;9.866;2023-02-11T15:33:47;102254.47;;;8.76;91.89
13934;BME280;7039;52.168;9.866;2023-02-11T15:36:14;102251.13;;;8.68;92.05
13934;BME280;7039;52.168;9.866;2023-02-11T15:38:42;102240.47;;;8.85;91.55
13934;BME280;7039;52.168;9.866;2023-02-11T15:41:33;102250.88;;;8.83;91.63
13934;BME280;7039;52.168;9.866;2023-02-11T15:44:00;102241.56;;;8.70;91.78
13934;BME280;7039;52.168;9.866;2023-02-11T15:46:33;102246.38;;;8.94;91.59
13934;BME280;7039;52.168;9.866;2023-02-11T15:49:03;102253.41;;;8.88;91.21
13934;BME280;7039;52.168;9.866;2023-02-11T15:51:33;102258.63;;;8.88;91.44
13934;BME280;7039;52.168;9.866;2023-02-11T15:54:02;102258.66;;;8.86;91.31
13934;BME280;7039;52.168;9.866;2023-02-11T15:56:35;102262.13;;;8.85;91.67
13934;BME280;7039;52.168;9.866;2023-02-11T15:59:14;102245.81;;;8.75;92.06
13934;BME280;7039;52.168;9.866;2023-02-11T16:01:44;102241.59;;;8.67;92.52
13934;BME280;7039;52.168;9.866;2023-02-11T16:04:17;102249.63;;;8.50;92.95
13934;BME280;7039;52.168;9.866;2023-02-11T16:06:44;102244.25;;;8.61;92.77
13934;BME280;7039;52.168;9.866;2023-02-11T16:09:25;102252.69;;;8.80;92.38
13934;BME280;7039;52.168;9.866;2023-02-11T16:11:57;102249.44;;;8.62;92.25
13934;BME280;7039;52.168;9.866;2023-02-11T16:14:28;102244.28;;;8.59;92.80
13934;BME280;7039;52.168;9.866;2023-02-11T16:16:57;102247.69;;;8.66;93.36
13934;BME280;7039;52.168;9.866;2023-02-11T16:19:26;102256.34;;;8.66;92.96
13934;BME280;7039;52.168;9.866;2023-02-11T16:21:54;102274.47;;;8.71;93.13
13934;BME280;7039;52.168;9.866;2023-02-11T16:24:25;102264.72;;;8.87;91.97
13934;BME280;7039;52.168;9.866;2023-02-11T16:26:54;102247.94;;;8.46;93.99
13934;BME280;7039;52.168;9.866;2023-02-11T16:29:24;102249.56;;;8.53;94.31
13934;BME280;7039;52.168;9.866;2023-02-11T16:31:52;102255.59;;;8.56;94.01
13934;BME280;7039;52.168;9.866;2023-02-11T16:34:22;102240.06;;;8.52;93.85
13934;BME280;7039;52.168;9.866;2023-02-11T16:36:49;102251.22;;;8.60;93.96
13934;BME280;7039;52.168;9.866;2023-02-11T16:39:17;102253.66;;;8.71;93.47
13934;BME280;7039;52.168;9.866;2023-02-11T16:41:46;102250.16;;;8.73;92.79
13934;BME280;7039;52.168;9.866;2023-02-11T16:44:14;102255.50;;;8.64;93.19
13934;BME280;7039;52.168;9.866;2023-02-11T16:46:41;102248.34;;;8.80;92.85
13934;BME280;7039;52.168;9.866;2023-02-11T16:49:10;102249.97;;;8.87;92.43
13934;BME280;7039;52.168;9.866;2023-02-11T16:51:47;102249.31;;;8.74;92.76
13934;BME280;7039;52.168;9.866;2023-02-11T16:54:15;102267.50;;;8.74;92.78
13934;BME280;7039;52.168;9.866;2023-02-11T16:56:42;102270.13;;;8.73;92.29
13934;BME280;7039;52.168;9.866;2023-02-11T16:59:09;102275.31;;;8.73;92.80
13934;BME280;7039;52.168;9.866;2023-02-11T17:01:36;102283.00;;;8.84;92.71
13934;BME280;7039;52.168;9.866;2023-02-11T17:04:04;102279.50;;;8.86;92.44
13934;BME280;7039;52.168;9.866;2023-02-11T17:06:32;102274.25;;;8.88;92.20
13934;BME280;7039;52.168;9.866;2023-02-11T17:09:00;102283.19;;;8.68;92.69
13934;BME280;7039;52.168;9.866;2023-02-11T17:11:27;102283.91;;;8.78;92.26
13934;BME280;7039;52.168;9.866;2023-02-11T17:13:53;102295.97;;;8.85;91.96
13934;BME280;7039;52.168;9.866;2023-02-11T17:16:21;102283.72;;;8.95;91.55
13934;BME280;7039;52.168;9.866;2023-02-11T17:18:49;102298.47;;;8.93;91.74
13934;BME280;7039;52.168;9.866;2023-02-11T17:21:17;102288.09;;;8.90;91.60
13934;BME280;7039;52.168;9.866;2023-02-11T17:23:43;102284.75;;;8.82;91.37
13934;BME280;7039;52.168;9.866;2023-02-11T17:26:12;102292.38;;;8.95;91.19
13934;BME280;7039;52.168;9.866;2023-02-11T17:28:38;102309.66;;;8.99;90.87
13934;BME280;7039;52.168;9.866;2023-02-11T17:31:08;102307.16;;;8.92;91.34
13934;BME280;7039;52.168;9.866;2023-02-11T17:33:35;102307.19;;;8.90;91.73
13934;BME280;7039;52.168;9.866;2023-02-11T17:36:04;102308.00;;;8.94;91.67
13934;BME280;7039;52.168;9.866;2023-02-11T17:38:31;102302.78;;;8.94;91.11
13934;BME280;7039;52.168;9.866;2023-02-11T17:40:58;102302.06;;;8.86;91.99
13934;BME280;7039;52.168;9.866;2023-02-11T17:43:26;102307.91;;;9.00;91.11
13934;BME280;7039;52.168;9.866;2023-02-11T17:45:53;102301.09;;;8.93;91.20
13934;BME280;7039;52.168;9.866;2023-02-11T17:48:19;102305.56;;;8.80;91.67
13934;BME280;7039;52.168;9.866;2023-02-11T17:50:46;102318.53;;;8.83;91.91
13934;BME280;7039;52.168;9.866;2023-02-11T17:53:12;102322.69;;;8.96;91.31
13934;BME280;7039;52.168;9.866;2023-02-11T17:55:39;102332.28;;;8.94;91.85
13934;BME280;7039;52.168;9.866;2023-02-11T17:58:06;102321.00;;;8.92;91.92
13934;BME280;7039;52.168;9.866;2023-02-11T18:00:34;102332.13;;;9.05;91.23
13934;BME280;7039;52.168;9.866;2023-02-11T18:03:00;102331.28;;;9.06;90.93
13934;BME280;7039;52.168;9.866;2023-02-11T18:05:28;102330.56;;;8.95;90.75
13934;BME280;7039;52.168;9.866;2023-02-11T18:07:58;102336.53;;;9.02;91.14
13934;BME280;7039;52.168;9.866;2023-02-11T18:10:25;102341.09;;;8.86;91.60
13934;BME280;7039;52.168;9.866;2023-02-11T18:12:51;102340.25;;;8.84;91.89
13934;BME280;7039;52.168;9.866;2023-02-11T18:15:18;102352.94;;;9.05;91.26
13934;BME280;7039;52.168;9.866;2023-02-11T18:17:46;102352.94;;;9.07;90.52
13934;BME280;7039;52.168;9.866;2023-02-11T18:20:12;102370.00;;;9.28;89.91
13934;BME280;7039;52.168;9.866;2023-02-11T18:22:40;102375.38;;;9.15;90.20
13934;BME280;7039;52.168;9.866;2023-02-11T18:25:10;102364.03;;;9.19;90.50
13934;BME280;7039;52.168;9.866;2023-02-11T18:27:38;102364.03;;;9.19;90.06
13934;BME280;7039;52.168;9.866;2023-02-11T18:30:06;102372.66;;;9.23;90.13
13934;BME280;7039;52.168;9.866;2023-02-11T18:32:33;102361.47;;;9.16;90.01
13934;BME280;7039;52.168;9.866;2023-02-11T18:35:00;102371.63;;;9.35;89.48
13934;BME280;7039;52.168;9.866;2023-02-11T18:37:27;102368.44;;;9.16;89.98
13934;BME280;7039;52.168;9.866;2023-02-11T18:39:53;102370.25;;;9.11;90.53
13934;BME280;7039;52.168;9.866;2023-02-11T18:42:20;102380.28;;;9.38;89.37
13934;BME280;7039;52.168;9.866;2023-02-11T18:44:46;102380.63;;;9.12;90.13
13934;BME280;7039;52.168;9.866;2023-02-11T18:47:13;102379.75;;;9.13;90.66
13934;BME280;7039;52.168;9.866;2023-02-11T18:49:39;102385.81;;;9.15;90.50
13934;BME280;7039;52.168;9.866;2023-02-11T18:52:07;102384.91;;;9.18;90.30
13934;BME280;7039;52.168;9.866;2023-02-11T18:55:04;102376.13;;;9.25;90.18
13934;BME280;7039;52.168;9.866;2023-02-11T18:57:31;102380.41;;;9.29;90.15
13934;BME280;7039;52.168;9.866;2023-02-11T18:59:58;102378.66;;;9.30;90.20
13934;BME280;7039;52.168;9.866;2023-02-11T19:02:24;102371.09;;;9.11;90.79
13934;BME280;7039;52.168;9.866;2023-02-11T19:04:52;102381.41;;;9.19;90.61
13934;BME280;7039;52.168;9.866;2023-02-11T19:07:20;102371.59;;;9.38;89.97
13934;BME280;7039;52.168;9.866;2023-02-11T19:09:47;102382.19;;;9.26;90.06
13934;BME280;7039;52.168;9.866;2023-02-11T19:12:13;102390.78;;;9.31;89.95
13934;BME280;7039;52.168;9.866;2023-02-11T19:14:39;102388.94;;;9.37;89.45
13934;BME280;7039;52.168;9.866;2023-02-11T19:17:06;102393.56;;;9.18;90.07
13934;BME280;7039;52.168;9.866;2023-02-11T19:19:34;102401.19;;;9.32;89.76
13934;BME280;7039;52.168;9.866;2023-02-11T19:22:02;102387.28;;;9.33;89.89
13934;BME280;7039;52.168;9.866;2023-02-11T19:24:32;102395.25;;;9.23;90.69
13934;BME280;7039;52.168;9.866;2023-02-11T19:27:01;102393.44;;;9.26;90.35
13934;BME280;7039;52.168;9.866;2023-02-11T19:29:28;102395.91;;;9.38;90.00
13934;BME280;7039;52.168;9.866;2023-02-11T19:31:56;102389.91;;;9.33;89.38
13934;BME280;7039;52.168;9.866;2023-02-11T19:34:25;102395.75;;;9.48;88.75
13934;BME280;7039;52.168;9.866;2023-02-11T19:36:53;102388.03;;;9.41;89.22
13934;BME280;7039;52.168;9.866;2023-02-11T19:39:20;102407.88;;;9.49;89.23
13934;BME280;7039;52.168;9.866;2023-02-11T19:41:50;102399.22;;;9.47;89.43
13934;BME280;7039;52.168;9.866;2023-02-11T19:44:16;102410.50;;;9.49;88.99
13934;BME280;7039;52.168;9.866;2023-02-11T19:46:43;102416.53;;;9.51;89.16
13934;BME280;7039;52.168;9.866;2023-02-11T19:49:10;102407.94;;;9.47;89.01
13934;BME280;7039;52.168;9.866;2023-02-11T19:51:39;102414.31;;;9.25;89.48
13934;BME280;7039;52.168;9.866;2023-02-11T19:54:06;102422.88;;;9.33;89.51
13934;BME280;7039;52.168;9.866;2023-02-11T19:56:32;102429.75;;;9.37;89.53
13934;BME280;7039;52.168;9.866;2023-02-11T19:59:02;102427.00;;;9.49;89.07
13934;BME280;7039;52.168;9.866;2023-02-11T20:01:29;102421.25;;;9.24;89.91
13934;BME280;7039;52.168;9.866;2023-02-11T20:03:55;102416.97;;;9.20;89.88
13934;BME280;7039;52.168;9.866;2023-02-11T20:06:24;102430.69;;;9.33;90.37
13934;BME280;7039;52.168;9.866;2023-02-11T20:08:52;102424.63;;;9.31;89.97
13934;BME280;7039;52.168;9.866;2023-02-11T20:11:20;102428.00;;;9.39;89.62
13934;BME280;7039;52.168;9.866;2023-02-11T20:13:46;102415.31;;;9.13;90.97
13934;BME280;7039;52.168;9.866;2023-02-11T20:16:16;102418.75;;;9.16;91.02
13934;BME280;7039;52.168;9.866;2023-02-11T20:18:44;102425.50;;;9.31;90.83
13934;BME280;7039;52.168;9.866;2023-02-11T20:21:12;102424.81;;;9.17;91.03
13934;BME280;7039;52.168;9.866;2023-02-11T20:23:40;102426.66;;;9.09;91.75
13934;BME280;7039;52.168;9.866;2023-02-11T20:26:07;102417.00;;;9.17;91.94
13934;BME280;7039;52.168;9.866;2023-02-11T20:28:35;102415.47;;;9.02;92.80
13934;BME280;7039;52.168;9.866;2023-02-11T20:31:02;102414.56;;;9.06;92.50
13934;BME280;7039;52.168;9.866;2023-02-11T20:33:31;102417.97;;;9.11;92.58
13934;BME280;7039;52.168;9.866;2023-02-11T20:36:01;102422.97;;;9.25;91.89
13934;BME280;7039;52.168;9.866;2023-02-11T20:38:28;102421.34;;;9.16;92.02
13934;BME280;7039;52.168;9.866;2023-02-11T20:40:55;102426.31;;;9.36;91.13
13934;BME280;7039;52.168;9.866;2023-02-11T20:43:21;102424.50;;;9.40;90.90
13934;BME280;7039;52.168;9.866;2023-02-11T20:45:48;102424.09;;;9.06;92.58
13934;BME280;7039;52.168;9.866;2023-02-11T20:48:14;102422.16;;;9.22;92.52
13934;BME280;7039;52.168;9.866;2023-02-11T20:50:42;102421.38;;;9.15;92.46
13934;BME280;7039;52.168;9.866;2023-02-11T20:53:09;102429.94;;;9.23;92.35
13934;BME280;7039;52.168;9.866;2023-02-11T20:55:36;102431.63;;;9.27;91.81
13934;BME280;7039;52.168;9.866;2023-02-11T20:58:04;102440.47;;;9.14;92.22
13934;BME280;7039;52.168;9.866;2023-02-11T21:00:30;102443.69;;;9.33;92.05
13934;BME280;7039;52.168;9.866;2023-02-11T21:02:57;102450.72;;;9.26;91.65
13934;BME280;7039;52.168;9.866;2023-02-11T21:05:24;102445.69;;;9.14;92.19
13934;BME280;7039;52.168;9.866;2023-02-11T21:07:52;102455.69;;;9.46;91.22
13934;BME280;7039;52.168;9.866;2023-02-11T21:10:19;102454.91;;;9.39;91.30
13934;BME280;7039;52.168;9.866;2023-02-11T21:12:46;102462.06;;;9.24;92.25
13934;BME280;7039;52.168;9.866;2023-02-11T21:15:12;102457.63;;;9.29;91.85
13934;BME280;7039;52.168;9.866;2023-02-11T21:17:39;102466.34;;;9.29;91.76
13934;BME280;7039;52.168;9.866;2023-02-11T21:20:07;102467.03;;;9.42;91.23
13934;BME280;7039;52.168;9.866;2023-02-11T21:22:34;102478.28;;;9.46;91.25
13934;BME280;7039;52.168;9.866;2023-02-11T21:25:02;102474.78;;;9.47;90.86
13934;BME280;7039;52.168;9.866;2023-02-11T21:27:30;102485.94;;;9.56;90.18
13934;BME280;7039;52.168;9.866;2023-02-11T21:29:58;102484.31;;;9.49;90.42
13934;BME280;7039;52.168;9.866;2023-02-11T21:32:25;102489.41;;;9.55;90.79
13934;BME280;7039;52.168;9.866;2023-02-11T21:34:51;102490.31;;;9.53;90.72
13934;BME280;7039;52.168;9.866;2023-02-11T21:37:19;102494.09;;;9.29;91.35
13934;BME280;7039;52.168;9.866;2023-02-11T21:39:47;102496.69;;;9.32;91.71
13934;BME280;7039;52.168;9.866;2023-02-11T21:42:15;102510.19;;;9.60;91.08
13934;BME280;7039;52.168;9.866;2023-02-11T21:44:41;102512.91;;;9.52;90.71
